sensor_id;sensor_type;location;lat;lon;timestamp;P1;durP1;ratioP1;P2;durP2;ratioP2
66609;SDS011;53468;48.276;14.416;2023-05-10T00:04:08;4.53;;;2.63;;
66609;SDS011;53468;48.276;14.416;2023-05-10T00:09:25;3.70;;;2.88;;
66609;SDS011;53468;48.276;14.416;2023-05-10T00:14:47;5.43;;;2.90;;
66609;SDS011;53468;48.276;14.416;2023-05-10T00:20:05;4.90;;;2.97;;
66609;SDS011;53468;48.276;14.416;2023-05-10T00:25:35;4.82;;;2.63;;
66609;SDS011;53468;48.276;14.416;2023-05-10T00:31:16;5.30;;;3.00;;
66609;SDS011;53468;48.276;14.416;2023-05-10T00:36:35;5.25;;;2.58;;
66609;SDS011;53468;48.276;14.416;2023-05-10T00:42:06;4.57;;;2.75;;
66609;SDS011;53468;48.276;14.416;2023-05-10T00:47:35;7.18;;;2.85;;
66609;SDS011;53468;48.276;14.416;2023-05-10T00:53:03;3.70;;;2.75;;
66609;SDS011;53468;48.276;14.416;2023-05-10T00:58:47;5.80;;;3.17;;
66609;SDS011;53468;48.276;14.416;2023-05-10T01:09:57;5.25;;;3.28;;
66609;SDS011;53468;48.276;14.416;2023-05-10T01:15:37;5.40;;;3.08;;
66609;SDS011;53468;48.276;14.416;2023-05-10T01:21:17;4.73;;;2.90;;
66609;SDS011;53468;48.276;14.416;2023-05-10T01:26:54;4.03;;;2.55;;
66609;SDS011;53468;48.276;14.416;2023-05-10T01:32:38;4.00;;;2.30;;
66609;SDS011;53468;48.276;14.416;2023-05-10T01:37:58;8.48;;;2.85;;
66609;SDS011;53468;48.276;14.416;2023-05-10T01:43:35;7.78;;;3.08;;
66609;SDS011;53468;48.276;14.416;2023-05-10T01:49:09;4.68;;;2.67;;
66609;SDS011;53468;48.276;14.416;2023-05-10T01:54:23;5.63;;;2.72;;
66609;SDS011;53468;48.276;14.416;2023-05-10T01:59:33;4.57;;;2.70;;
66609;SDS011;53468;48.276;14.416;2023-05-10T02:04:44;4.63;;;3.28;;
66609;SDS011;53468;48.276;14.416;2023-05-10T02:10:22;6.88;;;2.85;;
66609;SDS011;53468;48.276;14.416;2023-05-10T02:15:28;3.72;;;2.10;;
66609;SDS011;53468;48.276;14.416;2023-05-10T02:20:49;3.75;;;2.35;;
66609;SDS011;53468;48.276;14.416;2023-05-10T02:26:01;4.30;;;2.38;;
66609;SDS011;53468;48.276;14.416;2023-05-10T02:31:09;5.20;;;2.72;;
66609;SDS011;53468;48.276;14.416;2023-05-10T02:36:19;4.25;;;2.60;;
66609;SDS011;53468;48.276;14.416;2023-05-10T02:41:35;7.75;;;3.20;;
66609;SDS011;53468;48.276;14.416;2023-05-10T02:46:53;6.40;;;2.80;;
66609;SDS011;53468;48.276;14.416;2023-05-10T02:52:39;5.43;;;3.20;;
66609;SDS011;53468;48.276;14.416;2023-05-10T02:57:50;5.15;;;2.38;;
66609;SDS011;53468;48.276;14.416;2023-05-10T03:03:06;6.82;;;3.42;;
66609;SDS011;53468;48.276;14.416;2023-05-10T03:08:22;5.60;;;3.20;;
66609;SDS011;53468;48.276;14.416;2023-05-10T03:13:28;6.18;;;3.40;;
66609;SDS011;53468;48.276;14.416;2023-05-10T03:18:42;3.97;;;2.45;;
66609;SDS011;53468;48.276;14.416;2023-05-10T03:24:18;5.88;;;3.25;;
66609;SDS011;53468;48.276;14.416;2023-05-10T03:29:27;4.65;;;2.80;;
66609;SDS011;53468;48.276;14.416;2023-05-10T03:34:33;4.70;;;3.05;;
66609;SDS011;53468;48.276;14.416;2023-05-10T03:39:51;4.65;;;2.60;;
66609;SDS011;53468;48.276;14.416;2023-05-10T03:44:56;5.65;;;3.00;;
66609;SDS011;53468;48.276;14.416;2023-05-10T03:50:02;4.57;;;2.80;;
66609;SDS011;53468;48.276;14.416;2023-05-10T03:55:14;4.73;;;2.87;;
66609;SDS011;53468;48.276;14.416;2023-05-10T04:00:20;5.22;;;3.10;;
66609;SDS011;53468;48.276;14.416;2023-05-10T04:05:28;4.78;;;3.10;;
66609;SDS011;53468;48.276;14.416;2023-05-10T04:10:44;4.25;;;2.78;;
66609;SDS011;53468;48.276;14.416;2023-05-10T04:16:14;7.15;;;3.10;;
66609;SDS011;53468;48.276;14.416;2023-05-10T04:21:25;6.63;;;3.30;;
66609;SDS011;53468;48.276;14.416;2023-05-10T04:26:58;4.97;;;3.08;;
66609;SDS011;53468;48.276;14.416;2023-05-10T04:32:09;4.97;;;2.95;;
66609;SDS011;53468;48.276;14.416;2023-05-10T04:37:20;6.13;;;2.92;;
66609;SDS011;53468;48.276;14.416;2023-05-10T04:42:35;6.10;;;3.47;;
66609;SDS011;53468;48.276;14.416;2023-05-10T04:48:05;5.88;;;3.40;;
66609;SDS011;53468;48.276;14.416;2023-05-10T04:53:52;6.43;;;3.25;;
66609;SDS011;53468;48.276;14.416;2023-05-10T04:59:18;5.90;;;3.15;;
66609;SDS011;53468;48.276;14.416;2023-05-10T05:04:41;6.72;;;3.15;;
66609;SDS011;53468;48.276;14.416;2023-05-10T05:10:25;6.50;;;2.95;;
66609;SDS011;53468;48.276;14.416;2023-05-10T05:16:26;5.97;;;2.97;;
66609;SDS011;53468;48.276;14.416;2023-05-10T05:22:03;7.18;;;2.85;;
66609;SDS011;53468;48.276;14.416;2023-05-10T05:27:25;5.68;;;3.20;;
66609;SDS011;53468;48.276;14.416;2023-05-10T05:33:08;4.72;;;3.05;;
66609;SDS011;53468;48.276;14.416;2023-05-10T05:38:33;5.03;;;3.13;;
66609;SDS011;53468;48.276;14.416;2023-05-10T05:43:49;5.90;;;3.40;;
66609;SDS011;53468;48.276;14.416;2023-05-10T05:49:28;5.95;;;3.55;;
66609;SDS011;53468;48.276;14.416;2023-05-10T05:54:35;7.95;;;3.08;;
66609;SDS011;53468;48.276;14.416;2023-05-10T06:00:04;4.50;;;2.70;;
66609;SDS011;53468;48.276;14.416;2023-05-10T06:05:23;4.55;;;3.05;;
66609;SDS011;53468;48.276;14.416;2023-05-10T06:10:39;5.45;;;3.00;;
66609;SDS011;53468;48.276;14.416;2023-05-10T06:15:46;4.70;;;3.05;;
66609;SDS011;53468;48.276;14.416;2023-05-10T06:21:34;5.87;;;3.27;;
66609;SDS011;53468;48.276;14.416;2023-05-10T06:26:59;5.25;;;3.22;;
66609;SDS011;53468;48.276;14.416;2023-05-10T06:32:43;7.97;;;3.00;;
66609;SDS011;53468;48.276;14.416;2023-05-10T06:55:29;7.38;;;2.65;;
66609;SDS011;53468;48.276;14.416;2023-05-10T07:00:54;8.00;;;2.88;;
66609;SDS011;53468;48.276;14.416;2023-05-10T07:06:30;7.47;;;2.95;;
66609;SDS011;53468;48.276;14.416;2023-05-10T07:47:44;10.05;;;5.30;;
66609;SDS011;53468;48.276;14.416;2023-05-10T07:53:52;9.68;;;5.85;;
66609;SDS011;53468;48.276;14.416;2023-05-10T07:59:44;12.43;;;5.88;;
66609;SDS011;53468;48.276;14.416;2023-05-10T08:05:58;12.73;;;5.10;;
66609;SDS011;53468;48.276;14.416;2023-05-10T08:11:04;7.47;;;4.45;;
66609;SDS011;53468;48.276;14.416;2023-05-10T08:16:13;7.20;;;4.20;;
66609;SDS011;53468;48.276;14.416;2023-05-10T08:21:17;6.85;;;4.72;;
66609;SDS011;53468;48.276;14.416;2023-05-10T08:26:20;7.03;;;4.28;;
66609;SDS011;53468;48.276;14.416;2023-05-10T08:31:46;6.25;;;3.88;;
66609;SDS011;53468;48.276;14.416;2023-05-10T08:37:03;6.13;;;4.10;;
66609;SDS011;53468;48.276;14.416;2023-05-10T09:05:29;9.15;;;5.10;;
66609;SDS011;53468;48.276;14.416;2023-05-10T09:11:04;5.95;;;3.38;;
66609;SDS011;53468;48.276;14.416;2023-05-10T09:16:34;5.50;;;3.60;;
66609;SDS011;53468;48.276;14.416;2023-05-10T09:22:12;6.85;;;4.00;;
66609;SDS011;53468;48.276;14.416;2023-05-10T09:27:34;7.55;;;4.35;;
66609;SDS011;53468;48.276;14.416;2023-05-10T09:33:17;7.05;;;3.75;;
66609;SDS011;53468;48.276;14.416;2023-05-10T09:39:10;7.45;;;4.07;;
66609;SDS011;53468;48.276;14.416;2023-05-10T09:45:31;6.80;;;4.22;;
66609;SDS011;53468;48.276;14.416;2023-05-10T09:51:06;5.55;;;3.90;;
66609;SDS011;53468;48.276;14.416;2023-05-10T09:57:08;6.43;;;4.10;;
66609;SDS011;53468;48.276;14.416;2023-05-10T10:02:28;8.30;;;4.50;;
66609;SDS011;53468;48.276;14.416;2023-05-10T10:07:36;7.65;;;4.18;;
66609;SDS011;53468;48.276;14.416;2023-05-10T10:13:04;5.72;;;4.10;;
66609;SDS011;53468;48.276;14.416;2023-05-10T10:18:18;5.90;;;3.75;;
66609;SDS011;53468;48.276;14.416;2023-05-10T10:23:27;5.65;;;3.55;;
66609;SDS011;53468;48.276;14.416;2023-05-10T10:28:44;8.30;;;4.55;;
66609;SDS011;53468;48.276;14.416;2023-05-10T10:33:59;8.43;;;3.88;;
66609;SDS011;53468;48.276;14.416;2023-05-10T10:39:18;9.07;;;3.60;;
66609;SDS011;53468;48.276;14.416;2023-05-10T10:44:43;6.15;;;3.80;;
66609;SDS011;53468;48.276;14.416;2023-05-10T10:49:49;6.95;;;4.97;;
66609;SDS011;53468;48.276;14.416;2023-05-10T10:55:02;5.95;;;3.90;;
66609;SDS011;53468;48.276;14.416;2023-05-10T11:17:54;5.63;;;3.88;;
66609;SDS011;53468;48.276;14.416;2023-05-10T11:24:01;8.02;;;4.28;;
66609;SDS011;53468;48.276;14.416;2023-05-10T11:29:51;5.53;;;3.85;;
66609;SDS011;53468;48.276;14.416;2023-05-10T11:41:12;7.20;;;4.35;;
66609;SDS011;53468;48.276;14.416;2023-05-10T11:46:18;5.00;;;3.45;;
66609;SDS011;53468;48.276;14.416;2023-05-10T11:51:25;7.30;;;4.10;;
66609;SDS011;53468;48.276;14.416;2023-05-10T11:56:29;7.10;;;4.28;;
66609;SDS011;53468;48.276;14.416;2023-05-10T12:01:44;6.55;;;3.95;;
66609;SDS011;53468;48.276;14.416;2023-05-10T12:06:50;5.88;;;4.30;;
66609;SDS011;53468;48.276;14.416;2023-05-10T12:12:00;5.60;;;3.65;;
66609;SDS011;53468;48.276;14.416;2023-05-10T12:17:11;6.13;;;3.70;;
66609;SDS011;53468;48.276;14.416;2023-05-10T12:22:21;6.68;;;4.38;;
66609;SDS011;53468;48.276;14.416;2023-05-10T12:27:23;7.53;;;4.10;;
66609;SDS011;53468;48.276;14.416;2023-05-10T12:32:49;5.43;;;3.83;;
66609;SDS011;53468;48.276;14.416;2023-05-10T12:38:03;8.90;;;4.20;;
66609;SDS011;53468;48.276;14.416;2023-05-10T12:43:26;7.85;;;4.00;;
66609;SDS011;53468;48.276;14.416;2023-05-10T12:48:34;5.70;;;3.95;;
66609;SDS011;53468;48.276;14.416;2023-05-10T13:05:58;5.70;;;3.58;;
66609;SDS011;53468;48.276;14.416;2023-05-10T13:17:22;5.65;;;4.38;;
66609;SDS011;53468;48.276;14.416;2023-05-10T13:34:58;6.20;;;4.30;;
66609;SDS011;53468;48.276;14.416;2023-05-10T13:40:06;7.30;;;4.68;;
66609;SDS011;53468;48.276;14.416;2023-05-10T13:45:25;6.03;;;4.27;;
66609;SDS011;53468;48.276;14.416;2023-05-10T13:50:39;6.35;;;4.05;;
66609;SDS011;53468;48.276;14.416;2023-05-10T13:55:45;7.80;;;3.60;;
66609;SDS011;53468;48.276;14.416;2023-05-10T14:00:51;8.05;;;4.35;;
66609;SDS011;53468;48.276;14.416;2023-05-10T14:06:14;6.97;;;4.33;;
66609;SDS011;53468;48.276;14.416;2023-05-10T14:11:19;4.95;;;3.95;;
66609;SDS011;53468;48.276;14.416;2023-05-10T14:16:21;5.85;;;3.83;;
66609;SDS011;53468;48.276;14.416;2023-05-10T14:21:26;6.40;;;3.60;;
66609;SDS011;53468;48.276;14.416;2023-05-10T14:26:34;6.53;;;3.80;;
66609;SDS011;53468;48.276;14.416;2023-05-10T14:31:45;6.75;;;4.85;;
66609;SDS011;53468;48.276;14.416;2023-05-10T14:42:21;8.20;;;4.53;;
66609;SDS011;53468;48.276;14.416;2023-05-10T14:47:31;6.32;;;3.92;;
66609;SDS011;53468;48.276;14.416;2023-05-10T14:52:37;7.10;;;4.40;;
66609;SDS011;53468;48.276;14.416;2023-05-10T14:57:40;5.25;;;3.83;;
66609;SDS011;53468;48.276;14.416;2023-05-10T15:02:56;6.40;;;4.70;;
66609;SDS011;53468;48.276;14.416;2023-05-10T15:08:00;6.97;;;4.68;;
66609;SDS011;53468;48.276;14.416;2023-05-10T15:13:10;5.65;;;3.65;;
66609;SDS011;53468;48.276;14.416;2023-05-10T15:19:13;6.43;;;4.25;;
66609;SDS011;53468;48.276;14.416;2023-05-10T15:31:00;7.30;;;4.78;;
66609;SDS011;53468;48.276;14.416;2023-05-10T15:43:08;8.68;;;4.95;;
66609;SDS011;53468;48.276;14.416;2023-05-10T15:48:23;9.05;;;4.97;;
66609;SDS011;53468;48.276;14.416;2023-05-10T15:53:34;10.07;;;6.10;;
66609;SDS011;53468;48.276;14.416;2023-05-10T15:59:05;10.13;;;4.72;;
66609;SDS011;53468;48.276;14.416;2023-05-10T16:09:35;7.13;;;5.50;;
66609;SDS011;53468;48.276;14.416;2023-05-10T16:15:03;6.85;;;4.47;;
66609;SDS011;53468;48.276;14.416;2023-05-10T16:20:11;6.60;;;4.43;;
66609;SDS011;53468;48.276;14.416;2023-05-10T16:25:26;6.43;;;4.45;;
66609;SDS011;53468;48.276;14.416;2023-05-10T16:30:41;7.73;;;5.23;;
66609;SDS011;53468;48.276;14.416;2023-05-10T16:42:10;8.40;;;4.85;;
66609;SDS011;53468;48.276;14.416;2023-05-10T16:48:18;7.15;;;5.05;;
66609;SDS011;53468;48.276;14.416;2023-05-10T17:23:58;9.07;;;4.90;;
66609;SDS011;53468;48.276;14.416;2023-05-10T17:29:08;11.93;;;5.93;;
66609;SDS011;53468;48.276;14.416;2023-05-10T17:34:57;7.60;;;5.57;;
66609;SDS011;53468;48.276;14.416;2023-05-10T17:46:39;8.35;;;5.82;;
66609;SDS011;53468;48.276;14.416;2023-05-10T17:52:11;11.25;;;6.53;;
66609;SDS011;53468;48.276;14.416;2023-05-10T18:33:37;10.13;;;7.55;;
66609;SDS011;53468;48.276;14.416;2023-05-10T18:39:30;8.30;;;6.40;;
66609;SDS011;53468;48.276;14.416;2023-05-10T18:45:16;8.85;;;6.03;;
66609;SDS011;53468;48.276;14.416;2023-05-10T18:56:49;8.32;;;6.00;;
66609;SDS011;53468;48.276;14.416;2023-05-10T19:02:56;10.55;;;6.70;;
66609;SDS011;53468;48.276;14.416;2023-05-10T19:31:55;9.90;;;6.55;;
66609;SDS011;53468;48.276;14.416;2023-05-10T19:38:06;9.90;;;6.78;;
66609;SDS011;53468;48.276;14.416;2023-05-10T20:50:37;21.45;;;13.82;;
66609;SDS011;53468;48.276;14.416;2023-05-10T20:57:04;6.10;;;4.15;;
66609;SDS011;53468;48.276;14.416;2023-05-10T21:45:37;7.47;;;4.65;;
66609;SDS011;53468;48.276;14.416;2023-05-10T21:51:02;6.68;;;3.83;;
66609;SDS011;53468;48.276;14.416;2023-05-10T21:56:58;6.95;;;3.90;;
66609;SDS011;53468;48.276;14.416;2023-05-10T22:21:30;7.57;;;4.63;;
66609;SDS011;53468;48.276;14.416;2023-05-10T22:27:22;5.35;;;3.88;;
66609;SDS011;53468;48.276;14.416;2023-05-10T22:33:28;5.68;;;4.03;;
66609;SDS011;53468;48.276;14.416;2023-05-10T22:39:29;9.25;;;5.20;;
66609;SDS011;53468;48.276;14.416;2023-05-10T22:44:46;8.43;;;5.47;;
66609;SDS011;53468;48.276;14.416;2023-05-10T22:50:12;10.43;;;6.07;;
66609;SDS011;53468;48.276;14.416;2023-05-10T23:01:17;7.82;;;5.72;;
66609;SDS011;53468;48.276;14.416;2023-05-10T23:06:34;7.70;;;5.28;;
66609;SDS011;53468;48.276;14.416;2023-05-10T23:12:16;6.50;;;4.72;;
66609;SDS011;53468;48.276;14.416;2023-05-10T23:17:50;6.15;;;3.83;;
66609;SDS011;53468;48.276;14.416;2023-05-10T23:23:28;6.70;;;4.30;;
66609;SDS011;53468;48.276;14.416;2023-05-10T23:29:07;7.60;;;4.22;;
66609;SDS011;53468;48.276;14.416;2023-05-10T23:34:23;6.13;;;3.42;;
66609;SDS011;53468;48.276;14.416;2023-05-10T23:39:58;6.82;;;3.28;;
66609;SDS011;53468;48.276;14.416;2023-05-10T23:51:28;6.47;;;3.80;;
66609;SDS011;53468;48.276;14.416;2023-05-10T23:56:54;5.90;;;3.42;;
